createdAt,value
2023-01-20T00:00:09.475Z,16.70
2023-01-20T00:00:19.528Z,17.60
2023-01-20T00:00:29.499Z,18.00
2023-01-20T00:00:39.557Z,18.40
2023-01-20T00:00:49.543Z,17.60
2023-01-20T00:00:59.985Z,17.50
2023-01-20T00:01:09.522Z,17.60
2023-01-20T00:01:19.483Z,17.90
2023-01-20T00:01:29.493Z,18.00
2023-01-20T00:01:39.497Z,17.60
2023-01-20T00:01:49.495Z,17.20
2023-01-20T00:01:59.569Z,16.60
2023-01-20T00:02:09.560Z,16.40
2023-01-20T00:02:19.568Z,16.80
2023-01-20T00:02:29.528Z,17.20
2023-01-20T00:02:39.535Z,17.20
2023-01-20T00:02:49.547Z,16.80
2023-01-20T00:02:59.553Z,16.80
2023-01-20T00:03:09.462Z,16.60
2023-01-20T00:03:19.580Z,16.50
2023-01-20T00:03:29.581Z,16.80
2023-01-20T00:03:40.487Z,17.30
2023-01-20T00:03:49.499Z,17.20
2023-01-20T00:03:59.643Z,16.70
2023-01-20T00:04:09.472Z,16.30
2023-01-20T00:04:19.655Z,16.50
2023-01-20T00:04:29.467Z,16.30
2023-01-20T00:04:39.507Z,16.50
2023-01-20T00:04:49.468Z,16.80
2023-01-20T00:04:59.478Z,17.30
2023-01-20T00:05:09.466Z,17.00
2023-01-20T00:05:20.009Z,17.40
2023-01-20T00:05:29.465Z,17.50
2023-01-20T00:05:39.581Z,17.70
2023-01-20T00:05:49.455Z,17.10
2023-01-20T00:05:59.457Z,16.50
2023-01-20T00:06:09.476Z,16.60
2023-01-20T00:06:19.517Z,16.70
2023-01-20T00:06:29.456Z,17.60
2023-01-20T00:06:39.444Z,18.00
2023-01-20T00:06:49.455Z,17.80
2023-01-20T00:06:59.445Z,17.60
2023-01-20T00:07:09.449Z,16.90
2023-01-20T00:07:20.056Z,17.10
2023-01-20T00:07:29.489Z,17.00
2023-01-20T00:07:39.446Z,17.20
2023-01-20T00:07:49.457Z,16.40
2023-01-20T00:07:59.470Z,17.00
2023-01-20T00:08:09.457Z,17.00
2023-01-20T00:08:19.451Z,17.20
2023-01-20T00:08:29.450Z,16.80
2023-01-20T00:08:39.444Z,16.10
2023-01-20T00:08:49.457Z,15.80
2023-01-20T00:08:59.460Z,15.70
2023-01-20T00:09:09.451Z,15.80
2023-01-20T00:09:19.489Z,16.50
2023-01-20T00:09:29.480Z,17.00
2023-01-20T00:09:39.448Z,17.30
2023-01-20T00:09:49.451Z,17.00
2023-01-20T00:09:59.434Z,16.30
2023-01-20T00:10:09.438Z,16.10
2023-01-20T00:10:19.446Z,15.60
2023-01-20T00:10:29.488Z,15.60
2023-01-20T00:10:39.430Z,16.30
2023-01-20T00:10:49.439Z,16.50
2023-01-20T00:10:59.430Z,16.60
2023-01-20T00:11:09.515Z,16.50
2023-01-20T00:11:19.455Z,16.20
2023-01-20T00:11:29.432Z,16.20
2023-01-20T00:11:39.449Z,16.70
2023-01-20T00:11:49.487Z,18.30
2023-01-20T00:11:59.437Z,18.40
2023-01-20T00:12:09.448Z,17.60
2023-01-20T00:12:19.512Z,16.60
2023-01-20T00:12:29.421Z,17.10
2023-01-20T00:12:39.551Z,16.70
2023-01-20T00:12:49.415Z,15.90
2023-01-20T00:12:59.419Z,15.60
2023-01-20T00:13:09.440Z,15.50
2023-01-20T00:13:19.490Z,16.40
2023-01-20T00:13:29.418Z,16.40
2023-01-20T00:13:39.417Z,16.80
2023-01-20T00:13:49.461Z,16.30
2023-01-20T00:13:59.420Z,16.80
2023-01-20T00:14:09.428Z,16.40
2023-01-20T00:14:19.435Z,17.00
2023-01-20T00:14:29.429Z,17.10
2023-01-20T00:14:39.530Z,17.50
2023-01-20T00:14:49.460Z,17.00
2023-01-20T00:14:59.454Z,16.70
2023-01-20T00:15:09.422Z,17.00
2023-01-20T00:15:20.017Z,17.00
2023-01-20T00:15:29.437Z,17.10
2023-01-20T00:15:39.466Z,17.00
2023-01-20T00:15:49.448Z,16.90
2023-01-20T00:15:59.427Z,16.50
2023-01-20T00:16:09.522Z,16.30
2023-01-20T00:16:19.532Z,17.40
2023-01-20T00:16:29.421Z,18.00
2023-01-20T00:16:39.415Z,18.90
2023-01-20T00:16:49.440Z,19.30
2023-01-20T00:16:59.413Z,19.80
2023-01-20T00:17:09.411Z,19.70
2023-01-20T00:17:19.441Z,19.60
2023-01-20T00:17:29.475Z,20.50
2023-01-20T00:17:39.401Z,21.10
2023-01-20T00:17:49.533Z,21.10
2023-01-20T00:17:59.421Z,20.80
2023-01-20T00:18:09.416Z,20.40
2023-01-20T00:18:19.443Z,20.10
2023-01-20T00:18:29.399Z,20.10
2023-01-20T00:18:39.436Z,21.10
2023-01-20T00:18:49.451Z,22.40
2023-01-20T00:18:59.415Z,24.00
2023-01-20T00:19:09.398Z,26.10
2023-01-20T00:19:19.423Z,27.50
2023-01-20T00:19:29.401Z,28.10
2023-01-20T00:19:39.411Z,27.80
2023-01-20T00:19:49.444Z,28.10
2023-01-20T00:19:59.496Z,28.30
2023-01-20T00:20:09.399Z,30.10
2023-01-20T00:20:19.497Z,33.30
2023-01-20T00:20:29.401Z,37.10
2023-01-20T00:20:39.392Z,38.30
2023-01-20T00:20:50.000Z,34.10
2023-01-20T00:20:59.407Z,28.80
2023-01-20T00:21:09.422Z,25.60
2023-01-20T00:21:19.386Z,25.40
2023-01-20T00:21:29.418Z,26.90
2023-01-20T00:21:39.994Z,27.90
2023-01-20T00:21:49.379Z,29.20
2023-01-20T00:21:59.399Z,28.80
2023-01-20T00:22:09.398Z,28.30
2023-01-20T00:22:19.430Z,26.80
2023-01-20T00:22:30.066Z,24.80
2023-01-20T00:22:39.380Z,22.20
2023-01-20T00:22:49.390Z,21.00
2023-01-20T00:22:59.439Z,21.10
2023-01-20T00:23:09.394Z,22.00
2023-01-20T00:23:19.376Z,22.50
2023-01-20T00:23:29.373Z,22.00
2023-01-20T00:23:39.418Z,20.30
2023-01-20T00:23:49.419Z,19.10
2023-01-20T00:23:59.376Z,18.80
2023-01-20T00:24:09.395Z,19.30
2023-01-20T00:24:19.399Z,19.30
2023-01-20T00:24:29.457Z,20.00
2023-01-20T00:24:39.394Z,20.40
2023-01-20T00:24:49.380Z,20.90
2023-01-20T00:24:59.404Z,20.90
2023-01-20T00:25:09.369Z,20.40
2023-01-20T00:25:19.386Z,20.00
2023-01-20T00:25:29.375Z,19.30
2023-01-20T00:25:39.372Z,19.90
2023-01-20T00:25:49.441Z,18.90
2023-01-20T00:25:59.384Z,18.50
2023-01-20T00:26:09.394Z,17.40
2023-01-20T00:26:19.416Z,18.10
2023-01-20T00:26:29.386Z,18.70
2023-01-20T00:26:39.397Z,18.80
2023-01-20T00:26:49.389Z,18.90
2023-01-20T00:26:59.371Z,18.70
2023-01-20T00:27:09.363Z,19.50
2023-01-20T00:27:20.519Z,20.00
2023-01-20T00:27:29.374Z,20.10
2023-01-20T00:27:39.403Z,19.40
2023-01-20T00:27:49.375Z,19.20
2023-01-20T00:27:59.444Z,19.70
2023-01-20T00:28:09.429Z,20.00
2023-01-20T00:28:19.390Z,20.60
2023-01-20T00:28:29.354Z,20.20
2023-01-20T00:28:39.430Z,19.90
2023-01-20T00:28:49.376Z,18.20
2023-01-20T00:28:59.359Z,18.00
2023-01-20T00:29:09.410Z,17.90
2023-01-20T00:29:19.368Z,18.20
2023-01-20T00:29:29.354Z,18.10
2023-01-20T00:29:39.350Z,18.80
2023-01-20T00:29:49.372Z,18.40
2023-01-20T00:29:59.369Z,17.50
2023-01-20T00:30:09.383Z,17.50
2023-01-20T00:30:19.371Z,18.20
2023-01-20T00:30:29.435Z,18.60
2023-01-20T00:30:39.397Z,17.90
2023-01-20T00:30:49.371Z,17.50
2023-01-20T00:30:59.463Z,17.70
2023-01-20T00:31:09.439Z,18.20
2023-01-20T00:31:19.403Z,18.70
2023-01-20T00:31:29.385Z,18.90
2023-01-20T00:31:39.459Z,18.30
2023-01-20T00:31:49.346Z,17.90
2023-01-20T00:31:59.396Z,18.00
2023-01-20T00:32:09.393Z,18.30
2023-01-20T00:32:19.337Z,18.40
2023-01-20T00:32:29.345Z,18.10
2023-01-20T00:32:39.346Z,17.60
2023-01-20T00:32:50.007Z,17.60
2023-01-20T00:32:59.347Z,17.40
2023-01-20T00:33:09.360Z,17.90
2023-01-20T00:33:19.444Z,16.90
2023-01-20T00:33:29.414Z,17.40
2023-01-20T00:33:39.345Z,17.70
2023-01-20T00:33:49.374Z,18.60
2023-01-20T00:33:59.404Z,18.70
2023-01-20T00:34:09.331Z,18.80
2023-01-20T00:34:19.338Z,18.90
2023-01-20T00:34:29.333Z,18.40
2023-01-20T00:34:39.332Z,17.80
2023-01-20T00:34:49.393Z,16.80
2023-01-20T00:34:59.357Z,16.60
2023-01-20T00:35:09.335Z,17.00
2023-01-20T00:35:19.326Z,17.30
2023-01-20T00:35:29.334Z,17.10
2023-01-20T00:35:39.432Z,16.20
2023-01-20T00:35:49.323Z,16.60
2023-01-20T00:35:59.327Z,17.50
2023-01-20T00:36:09.339Z,17.70
2023-01-20T00:36:19.343Z,17.10
2023-01-20T00:36:29.343Z,16.10
2023-01-20T00:36:39.418Z,16.10
2023-01-20T00:36:49.409Z,16.30
2023-01-20T00:36:59.388Z,17.30
2023-01-20T00:37:09.322Z,17.90
2023-01-20T00:37:19.322Z,18.60
2023-01-20T00:37:29.415Z,17.50
2023-01-20T00:37:39.333Z,17.80
2023-01-20T00:37:49.333Z,17.10
2023-01-20T00:37:59.330Z,17.30
2023-01-20T00:38:09.337Z,16.70
2023-01-20T00:38:19.326Z,17.00
2023-01-20T00:38:29.570Z,17.30
2023-01-20T00:38:39.313Z,17.90
2023-01-20T00:38:49.351Z,17.70
2023-01-20T00:38:59.313Z,16.90
2023-01-20T00:39:09.320Z,17.80
2023-01-20T00:39:19.309Z,18.40
2023-01-20T00:39:29.309Z,18.70
2023-01-20T00:39:39.324Z,17.70
2023-01-20T00:39:49.338Z,17.10
2023-01-20T00:39:59.315Z,17.10
2023-01-20T00:40:09.344Z,16.80
2023-01-20T00:40:19.303Z,16.80
2023-01-20T00:40:29.320Z,16.60
2023-01-20T00:40:39.309Z,16.30
2023-01-20T00:40:49.305Z,16.60
2023-01-20T00:40:59.339Z,17.50
2023-01-20T00:41:09.309Z,17.90
2023-01-20T00:41:19.319Z,17.70
2023-01-20T00:41:29.343Z,17.60
2023-01-20T00:41:39.402Z,17.40
2023-01-20T00:41:49.332Z,17.10
2023-01-20T00:41:59.301Z,16.50
2023-01-20T00:42:09.308Z,16.90
2023-01-20T00:42:19.324Z,16.90
2023-01-20T00:42:29.301Z,17.40
2023-01-20T00:42:39.414Z,17.00
2023-01-20T00:42:49.296Z,17.30
2023-01-20T00:42:59.305Z,16.10
2023-01-20T00:43:09.322Z,16.70
2023-01-20T00:43:19.301Z,16.60
2023-01-20T00:43:29.287Z,17.20
2023-01-20T00:43:39.369Z,17.10
2023-01-20T00:43:49.309Z,16.80
2023-01-20T00:44:00.114Z,17.20
2023-01-20T00:44:09.513Z,17.50
2023-01-20T00:44:19.319Z,17.20
2023-01-20T00:44:29.297Z,17.50
2023-01-20T00:44:40.146Z,16.70
2023-01-20T00:44:49.301Z,16.50
2023-01-20T00:44:59.356Z,16.20
2023-01-20T00:45:09.323Z,16.40
2023-01-20T00:45:19.286Z,17.10
2023-01-20T00:45:29.305Z,16.70
2023-01-20T00:45:39.307Z,17.00
2023-01-20T00:45:49.277Z,17.20
2023-01-20T00:45:59.397Z,18.20
2023-01-20T00:46:09.355Z,17.90
2023-01-20T00:46:20.175Z,18.10
2023-01-20T00:46:29.378Z,17.30
2023-01-20T00:46:39.355Z,17.40
2023-01-20T00:46:49.378Z,16.80
2023-01-20T00:46:59.315Z,17.20
2023-01-20T00:47:09.294Z,16.70
2023-01-20T00:47:19.285Z,16.50
2023-01-20T00:47:29.311Z,16.70
2023-01-20T00:47:39.420Z,16.90
2023-01-20T00:47:49.297Z,17.80
2023-01-20T00:47:59.298Z,17.00
2023-01-20T00:48:09.315Z,16.80
2023-01-20T00:48:19.282Z,15.60
2023-01-20T00:48:29.379Z,15.40
2023-01-20T00:48:39.306Z,15.60
2023-01-20T00:48:49.397Z,16.50
2023-01-20T00:48:59.304Z,16.40
2023-01-20T00:49:09.273Z,16.20
2023-01-20T00:49:19.281Z,15.80
2023-01-20T00:49:29.319Z,16.40
2023-01-20T00:49:39.265Z,16.90
2023-01-20T00:49:49.267Z,17.10
2023-01-20T00:49:59.318Z,16.80
2023-01-20T00:50:09.267Z,16.70
2023-01-20T00:50:19.440Z,16.40
2023-01-20T00:50:29.345Z,16.80
2023-01-20T00:50:39.260Z,16.70
2023-01-20T00:50:49.290Z,16.60
2023-01-20T00:50:59.297Z,16.20
2023-01-20T00:51:10.005Z,16.50
2023-01-20T00:51:19.281Z,17.00
2023-01-20T00:51:29.258Z,16.70
2023-01-20T00:51:39.265Z,16.50
2023-01-20T00:51:49.298Z,16.00
2023-01-20T00:51:59.261Z,16.70
2023-01-20T00:52:09.258Z,16.80
2023-01-20T00:52:19.294Z,17.40
2023-01-20T00:52:29.258Z,17.00
2023-01-20T00:52:39.349Z,16.90
2023-01-20T00:52:49.299Z,16.50
2023-01-20T00:52:59.264Z,16.70
2023-01-20T00:53:09.257Z,16.50
2023-01-20T00:53:19.274Z,16.20
2023-01-20T00:53:29.259Z,15.60
2023-01-20T00:53:39.254Z,15.80
2023-01-20T00:53:49.285Z,16.20
2023-01-20T00:53:59.309Z,16.80
2023-01-20T00:54:09.286Z,16.60
2023-01-20T00:54:19.270Z,16.40
2023-01-20T00:54:29.261Z,16.30
2023-01-20T00:54:39.256Z,16.80
2023-01-20T00:54:49.249Z,16.60
2023-01-20T00:54:59.258Z,16.80
2023-01-20T00:55:09.261Z,15.60
2023-01-20T00:55:19.276Z,15.80
2023-01-20T00:55:29.247Z,15.70
2023-01-20T00:55:39.260Z,16.90
2023-01-20T00:55:49.248Z,17.60
2023-01-20T00:55:59.253Z,17.50
2023-01-20T00:56:09.257Z,17.40
2023-01-20T00:56:19.237Z,16.60
2023-01-20T00:56:29.258Z,15.90
2023-01-20T00:56:39.397Z,16.20
2023-01-20T00:56:49.235Z,16.40
2023-01-20T00:56:59.256Z,17.40
2023-01-20T00:57:09.240Z,16.50
2023-01-20T00:57:19.242Z,16.30
2023-01-20T00:57:29.239Z,16.00
2023-01-20T00:57:39.329Z,16.80
2023-01-20T00:57:49.255Z,16.90
2023-01-20T00:57:59.351Z,16.40
2023-01-20T00:58:09.277Z,16.60
2023-01-20T00:58:19.236Z,17.00
2023-01-20T00:58:29.244Z,17.70
2023-01-20T00:58:39.228Z,17.50
2023-01-20T00:58:49.237Z,17.60
2023-01-20T00:58:59.236Z,16.80
2023-01-20T00:59:09.310Z,16.10
2023-01-20T00:59:19.246Z,16.30
2023-01-20T00:59:29.224Z,16.50
2023-01-20T00:59:39.232Z,17.30
2023-01-20T00:59:49.244Z,17.00
2023-01-20T00:59:59.387Z,17.80
2023-01-20T01:00:09.228Z,17.10
2023-01-20T01:00:19.228Z,17.30
2023-01-20T01:00:29.259Z,17.70
2023-01-20T01:00:39.303Z,17.70
2023-01-20T01:00:49.263Z,17.80
2023-01-20T01:00:59.420Z,16.60
2023-01-20T01:01:09.432Z,17.10
2023-01-20T01:01:19.375Z,16.90
2023-01-20T01:01:29.311Z,17.10
2023-01-20T01:01:39.381Z,17.10
2023-01-20T01:01:49.391Z,16.70
2023-01-20T01:01:59.392Z,16.40
2023-01-20T01:02:10.134Z,15.90
2023-01-20T01:02:19.273Z,16.30
2023-01-20T01:02:29.277Z,16.90
2023-01-20T01:02:39.237Z,17.20
2023-01-20T01:02:49.218Z,16.80
2023-01-20T01:02:59.227Z,16.70
2023-01-20T01:03:09.217Z,16.70
2023-01-20T01:03:19.227Z,16.80
2023-01-20T01:03:29.232Z,16.60
2023-01-20T01:03:39.235Z,16.30
2023-01-20T01:03:50.003Z,15.70
2023-01-20T01:03:59.218Z,15.90
2023-01-20T01:04:09.235Z,16.40
2023-01-20T01:04:19.443Z,16.80
2023-01-20T01:04:29.213Z,16.90
2023-01-20T01:04:39.223Z,16.90
2023-01-20T01:04:49.211Z,17.30
2023-01-20T01:04:59.255Z,17.80
2023-01-20T01:05:09.222Z,17.90
2023-01-20T01:05:19.211Z,17.20
2023-01-20T01:05:29.217Z,16.50
2023-01-20T01:05:39.334Z,16.90
2023-01-20T01:05:49.199Z,17.60
2023-01-20T01:05:59.206Z,18.10
2023-01-20T01:06:10.006Z,17.30
2023-01-20T01:06:19.222Z,17.90
2023-01-20T01:06:29.205Z,17.80
2023-01-20T01:06:39.225Z,19.30
2023-01-20T01:06:49.224Z,18.60
2023-01-20T01:06:59.220Z,18.70
2023-01-20T01:07:09.190Z,17.40
2023-01-20T01:07:19.196Z,16.80
2023-01-20T01:07:29.208Z,16.80
2023-01-20T01:07:39.209Z,16.50
2023-01-20T01:07:49.190Z,17.10
2023-01-20T01:07:59.197Z,17.40
2023-01-20T01:08:09.261Z,18.00
2023-01-20T01:08:19.200Z,18.00
2023-01-20T01:08:29.200Z,16.60
2023-01-20T01:08:39.223Z,16.00
2023-01-20T01:08:49.185Z,15.80
2023-01-20T01:08:59.207Z,16.90
2023-01-20T01:09:09.212Z,17.00
2023-01-20T01:09:19.278Z,16.90
2023-01-20T01:09:29.259Z,17.60
2023-01-20T01:09:40.010Z,17.60
2023-01-20T01:09:49.281Z,18.40
2023-01-20T01:09:59.179Z,18.00
2023-01-20T01:10:10.008Z,18.10
2023-01-20T01:10:19.182Z,18.10
2023-01-20T01:10:29.183Z,17.50
2023-01-20T01:10:39.177Z,17.50
2023-01-20T01:10:49.206Z,17.20
2023-01-20T01:10:59.195Z,17.20
2023-01-20T01:11:10.081Z,17.90
2023-01-20T01:11:19.189Z,17.60
2023-01-20T01:11:29.171Z,17.80
2023-01-20T01:11:39.206Z,17.60
2023-01-20T01:11:49.212Z,17.30
2023-01-20T01:11:59.268Z,16.70
2023-01-20T01:12:09.175Z,16.50
2023-01-20T01:12:19.175Z,16.70
2023-01-20T01:12:29.174Z,17.50
2023-01-20T01:12:40.018Z,17.60
2023-01-20T01:12:49.222Z,17.70
2023-01-20T01:12:59.185Z,16.70
2023-01-20T01:13:09.202Z,16.50
2023-01-20T01:13:20.029Z,16.30
2023-01-20T01:13:29.178Z,16.70
2023-01-20T01:13:39.196Z,16.50
2023-01-20T01:13:49.189Z,16.90
2023-01-20T01:13:59.175Z,16.90
2023-01-20T01:14:09.171Z,17.00
2023-01-20T01:14:19.164Z,17.30
2023-01-20T01:14:29.170Z,17.80
2023-01-20T01:14:39.558Z,17.70
2023-01-20T01:14:49.166Z,16.90
2023-01-20T01:14:59.172Z,16.40
2023-01-20T01:15:09.167Z,16.20
2023-01-20T01:15:19.164Z,16.80
2023-01-20T01:15:29.166Z,16.30
2023-01-20T01:15:39.184Z,16.70
2023-01-20T01:15:50.142Z,16.30
2023-01-20T01:15:59.198Z,16.90
2023-01-20T01:16:09.240Z,16.90
2023-01-20T01:16:19.237Z,16.90
2023-01-20T01:16:29.243Z,15.90
2023-01-20T01:16:39.165Z,16.10
2023-01-20T01:16:50.047Z,16.90
2023-01-20T01:16:59.154Z,17.40
2023-01-20T01:17:09.153Z,16.80
2023-01-20T01:17:19.154Z,16.10
2023-01-20T01:17:29.204Z,16.20
2023-01-20T01:17:39.184Z,16.10
2023-01-20T01:17:49.162Z,16.50
2023-01-20T01:17:59.205Z,16.40
2023-01-20T01:18:09.149Z,17.40
2023-01-20T01:18:19.174Z,17.50
2023-01-20T01:18:29.146Z,17.60
2023-01-20T01:18:39.154Z,17.00
2023-01-20T01:18:49.162Z,16.90
2023-01-20T01:18:59.199Z,17.20
2023-01-20T01:19:09.138Z,17.80
2023-01-20T01:19:19.215Z,19.10
2023-01-20T01:19:30.033Z,18.80
2023-01-20T01:19:39.141Z,17.80
2023-01-20T01:19:49.218Z,16.20
2023-01-20T01:19:59.137Z,16.10
2023-01-20T01:20:09.147Z,16.40
2023-01-20T01:20:19.181Z,17.00
2023-01-20T01:20:29.290Z,17.20
2023-01-20T01:20:39.149Z,16.60
2023-01-20T01:20:49.180Z,16.30
2023-01-20T01:20:59.131Z,16.70
2023-01-20T01:21:09.167Z,17.30
2023-01-20T01:21:19.143Z,17.30
2023-01-20T01:21:29.146Z,17.30
2023-01-20T01:21:39.157Z,17.40
2023-01-20T01:21:49.140Z,17.70
2023-01-20T01:21:59.137Z,17.50
2023-01-20T01:22:09.169Z,17.60
2023-01-20T01:22:19.132Z,17.50
2023-01-20T01:22:29.143Z,17.40
2023-01-20T01:22:39.169Z,17.20
2023-01-20T01:22:49.135Z,16.80
2023-01-20T01:23:00.128Z,17.20
2023-01-20T01:23:09.211Z,16.70
2023-01-20T01:23:19.125Z,16.90
2023-01-20T01:23:29.139Z,15.90
2023-01-20T01:23:39.170Z,16.40
2023-01-20T01:23:49.140Z,16.70
2023-01-20T01:24:00.025Z,16.90
2023-01-20T01:24:09.270Z,16.70
2023-01-20T01:24:19.131Z,16.50
2023-01-20T01:24:30.006Z,18.30
2023-01-20T01:24:39.172Z,18.20
2023-01-20T01:24:49.143Z,17.90
2023-01-20T01:24:59.187Z,16.50
2023-01-20T01:25:09.121Z,16.50
2023-01-20T01:25:19.117Z,17.00
2023-01-20T01:25:29.128Z,17.10
2023-01-20T01:25:39.144Z,17.30
2023-01-20T01:25:49.118Z,17.60
2023-01-20T01:25:59.182Z,18.20
2023-01-20T01:26:09.147Z,17.60
2023-01-20T01:26:19.123Z,16.80
2023-01-20T01:26:29.135Z,16.00
2023-01-20T01:26:39.116Z,16.40
2023-01-20T01:26:49.117Z,17.20
2023-01-20T01:27:00.013Z,16.90
2023-01-20T01:27:09.192Z,16.90
2023-01-20T01:27:22.004Z,16.20
2023-01-20T01:27:29.158Z,16.40
2023-01-20T01:27:39.136Z,16.80
2023-01-20T01:27:49.110Z,16.90
2023-01-20T01:27:59.167Z,17.50
2023-01-20T01:28:09.101Z,17.40
2023-01-20T01:28:19.109Z,18.00
2023-01-20T01:28:29.109Z,17.80
2023-01-20T01:28:39.120Z,17.40
2023-01-20T01:28:49.125Z,16.80
2023-01-20T01:28:59.142Z,16.20
2023-01-20T01:29:09.115Z,16.60
2023-01-20T01:29:19.130Z,16.70
2023-01-20T01:29:29.116Z,16.30
2023-01-20T01:29:39.112Z,16.20
2023-01-20T01:29:49.119Z,16.20
2023-01-20T01:29:59.093Z,17.10
2023-01-20T01:30:10.007Z,17.60
2023-01-20T01:30:19.157Z,17.70
2023-01-20T01:30:29.145Z,18.00
2023-01-20T01:30:39.125Z,16.90
2023-01-20T01:30:49.218Z,16.80
2023-01-20T01:30:59.112Z,15.60
2023-01-20T01:31:09.289Z,15.90
2023-01-20T01:31:19.151Z,16.00
2023-01-20T01:31:30.056Z,17.00
2023-01-20T01:31:39.196Z,17.50
2023-01-20T01:31:49.179Z,17.30
2023-01-20T01:31:59.090Z,17.10
2023-01-20T01:32:09.098Z,16.50
2023-01-20T01:32:19.105Z,16.70
2023-01-20T01:32:29.091Z,16.40
2023-01-20T01:32:39.119Z,16.00
2023-01-20T01:32:49.117Z,16.20
2023-01-20T01:32:59.176Z,16.60
2023-01-20T01:33:09.108Z,16.60
2023-01-20T01:33:20.016Z,16.60
2023-01-20T01:33:29.096Z,16.80
2023-01-20T01:33:39.114Z,16.90
2023-01-20T01:33:49.086Z,16.90
2023-01-20T01:33:59.101Z,16.40
2023-01-20T01:34:09.111Z,17.00
2023-01-20T01:34:20.196Z,16.90
2023-01-20T01:34:29.099Z,17.50
2023-01-20T01:34:39.105Z,17.20
2023-01-20T01:34:49.100Z,17.40
2023-01-20T01:34:59.171Z,17.20
2023-01-20T01:35:09.097Z,17.20
2023-01-20T01:35:19.181Z,17.30
2023-01-20T01:35:29.187Z,17.10
2023-01-20T01:35:39.171Z,17.30
2023-01-20T01:35:49.089Z,17.60
2023-01-20T01:35:59.067Z,18.20
2023-01-20T01:36:09.106Z,18.40
2023-01-20T01:36:19.082Z,16.70
2023-01-20T01:36:29.109Z,15.80
2023-01-20T01:36:39.079Z,15.50
2023-01-20T01:36:49.084Z,16.00
2023-01-20T01:36:59.101Z,16.30
2023-01-20T01:37:09.199Z,16.70
2023-01-20T01:37:19.093Z,16.70
2023-01-20T01:37:29.087Z,16.70
2023-01-20T01:37:39.078Z,16.30
2023-01-20T01:37:49.161Z,16.00
2023-01-20T01:37:59.131Z,16.10
2023-01-20T01:38:09.064Z,16.80
2023-01-20T01:38:19.096Z,16.80
2023-01-20T01:38:30.026Z,17.10
2023-01-20T01:38:39.066Z,17.50
2023-01-20T01:38:58.171Z,17.90
2023-01-20T01:38:59.399Z,18.00
2023-01-20T01:39:09.072Z,17.60
2023-01-20T01:39:19.067Z,17.60
2023-01-20T01:39:29.059Z,17.20
2023-01-20T01:39:39.062Z,17.30
2023-01-20T01:39:49.078Z,16.80
2023-01-20T01:39:59.240Z,17.00
2023-01-20T01:40:09.081Z,16.40
2023-01-20T01:40:19.066Z,17.60
2023-01-20T01:40:29.140Z,17.50
2023-01-20T01:40:39.197Z,18.00
2023-01-20T01:40:49.124Z,17.10
2023-01-20T01:40:59.070Z,17.00
2023-01-20T01:41:09.086Z,16.60
2023-01-20T01:41:19.114Z,16.80
2023-01-20T01:41:29.052Z,16.70
2023-01-20T01:41:39.049Z,17.50
2023-01-20T01:41:49.071Z,16.80
2023-01-20T01:41:59.060Z,16.90
2023-01-20T01:42:09.083Z,16.50
2023-01-20T01:42:19.049Z,17.00
2023-01-20T01:42:29.050Z,17.50
2023-01-20T01:42:40.820Z,17.20
2023-01-20T01:42:50.058Z,17.50
2023-01-20T01:42:59.052Z,16.80
2023-01-20T01:43:09.056Z,17.80
2023-01-20T01:43:19.059Z,17.70
2023-01-20T01:43:29.102Z,18.30
2023-01-20T01:43:39.063Z,18.20
2023-01-20T01:43:49.035Z,18.60
2023-01-20T01:43:59.062Z,18.10
2023-01-20T01:44:09.154Z,18.10
2023-01-20T01:44:19.043Z,17.90
2023-01-20T01:44:29.172Z,18.10
2023-01-20T01:44:39.118Z,18.20
2023-01-20T01:44:49.055Z,18.30
2023-01-20T01:44:59.044Z,17.90
2023-01-20T01:45:09.035Z,17.70
2023-01-20T01:45:19.044Z,17.50
2023-01-20T01:45:30.105Z,18.10
2023-01-20T01:45:39.245Z,17.40
2023-01-20T01:45:49.149Z,17.10
2023-01-20T01:45:59.173Z,16.80
2023-01-20T01:46:09.064Z,17.60
2023-01-20T01:46:19.024Z,18.20
2023-01-20T01:46:29.042Z,17.90
2023-01-20T01:46:39.026Z,17.60
2023-01-20T01:46:50.026Z,17.10
2023-01-20T01:46:59.042Z,17.40
2023-01-20T01:47:09.022Z,17.60
2023-01-20T01:47:19.023Z,17.50
2023-01-20T01:47:29.031Z,17.20
2023-01-20T01:47:39.170Z,17.40
2023-01-20T01:47:49.041Z,17.80
2023-01-20T01:47:59.096Z,17.90
2023-01-20T01:48:10.030Z,17.30
2023-01-20T01:48:19.096Z,16.60
2023-01-20T01:48:29.044Z,16.40
2023-01-20T01:48:39.053Z,16.40
2023-01-20T01:48:49.033Z,16.30
2023-01-20T01:48:59.015Z,16.00
2023-01-20T01:49:09.038Z,16.80
2023-01-20T01:49:19.034Z,17.20
2023-01-20T01:49:29.101Z,17.60
2023-01-20T01:49:40.083Z,17.30
2023-01-20T01:49:49.185Z,17.10
2023-01-20T01:49:59.009Z,17.00
2023-01-20T01:50:09.041Z,17.00
2023-01-20T01:50:19.089Z,17.10
2023-01-20T01:50:29.522Z,17.20
2023-01-20T01:50:39.560Z,17.60
2023-01-20T01:50:49.076Z,18.10
2023-01-20T01:51:01.559Z,18.00
2023-01-20T01:51:09.052Z,18.00
2023-01-20T01:51:19.021Z,17.80
2023-01-20T01:51:29.528Z,18.30
2023-01-20T01:51:39.025Z,17.80
2023-01-20T01:51:49.007Z,17.40
2023-01-20T01:51:59.022Z,17.00
2023-01-20T01:52:09.150Z,17.30
2023-01-20T01:52:19.010Z,17.60
2023-01-20T01:52:29.537Z,17.20
2023-01-20T01:52:39.011Z,17.40
2023-01-20T01:52:49.008Z,17.30
2023-01-20T01:52:59.034Z,18.00
2023-01-20T01:53:09.017Z,17.60
2023-01-20T01:53:19.002Z,18.10
2023-01-20T01:53:29.006Z,18.20
2023-01-20T01:53:39.031Z,18.60
2023-01-20T01:53:49.528Z,18.00
2023-01-20T01:53:58.998Z,17.70
2023-01-20T01:54:09.000Z,18.10
2023-01-20T01:54:19.017Z,18.80
2023-01-20T01:54:29.001Z,19.30
2023-01-20T01:54:39.022Z,18.20
2023-01-20T01:54:49.521Z,17.40
2023-01-20T01:54:59.014Z,16.90
2023-01-20T01:55:09.004Z,17.40
2023-01-20T01:55:19.129Z,17.60
2023-01-20T01:55:29.021Z,18.00
2023-01-20T01:55:38.986Z,17.80
2023-01-20T01:55:48.992Z,17.70
2023-01-20T01:55:59.047Z,17.10
2023-01-20T01:56:09.034Z,16.80
2023-01-20T01:56:19.000Z,16.90
2023-01-20T01:56:29.020Z,17.20
2023-01-20T01:56:39.526Z,16.80
2023-01-20T01:56:48.980Z,17.10
2023-01-20T01:56:59.084Z,16.70
2023-01-20T01:57:08.990Z,17.70
2023-01-20T01:57:19.021Z,17.70
2023-01-20T01:57:28.982Z,18.60
2023-01-20T01:57:38.989Z,18.70
2023-01-20T01:57:48.985Z,18.20
2023-01-20T01:57:59.083Z,17.60
2023-01-20T01:58:08.990Z,16.90
2023-01-20T01:58:18.984Z,16.00
2023-01-20T01:58:28.978Z,16.10
2023-01-20T01:58:39.001Z,17.10
2023-01-20T01:58:49.614Z,17.90
2023-01-20T01:58:58.975Z,17.40
2023-01-20T01:59:08.979Z,17.30
2023-01-20T01:59:18.990Z,18.60
2023-01-20T01:59:29.067Z,19.30
2023-01-20T01:59:39.025Z,19.70
2023-01-20T01:59:48.978Z,18.60
2023-01-20T01:59:59.077Z,18.60
2023-01-20T02:00:08.983Z,17.70
2023-01-20T02:00:19.029Z,18.10
2023-01-20T02:00:28.975Z,18.20
2023-01-20T02:00:39.062Z,18.80
2023-01-20T02:00:49.542Z,18.60
2023-01-20T02:00:59.049Z,20.40
2023-01-20T02:01:09.193Z,20.30
2023-01-20T02:01:19.095Z,19.90
2023-01-20T02:01:29.056Z,17.70
2023-01-20T02:01:39.031Z,17.30
2023-01-20T02:01:49.115Z,17.30
2023-01-20T02:01:59.657Z,17.20
2023-01-20T02:02:09.024Z,17.40
2023-01-20T02:02:21.888Z,17.60
2023-01-20T02:02:28.999Z,17.10
2023-01-20T02:02:39.035Z,17.00
2023-01-20T02:02:48.960Z,17.80
2023-01-20T02:02:59.086Z,18.80
2023-01-20T02:03:08.969Z,18.20
2023-01-20T02:03:18.966Z,17.60
2023-01-20T02:03:28.990Z,17.30
2023-01-20T02:03:39.132Z,17.50
2023-01-20T02:03:48.970Z,17.60
2023-01-20T02:03:59.035Z,18.40
2023-01-20T02:04:08.968Z,19.00
2023-01-20T02:04:18.962Z,19.10
2023-01-20T02:04:28.959Z,18.50
2023-01-20T02:04:38.947Z,18.80
2023-01-20T02:04:49.002Z,18.80
2023-01-20T02:04:58.978Z,19.00
2023-01-20T02:05:09.009Z,17.90
2023-01-20T02:05:18.948Z,18.20
2023-01-20T02:05:28.960Z,18.30
2023-01-20T02:05:38.973Z,18.80
2023-01-20T02:05:48.966Z,17.60
2023-01-20T02:05:58.966Z,16.90
2023-01-20T02:06:08.975Z,16.90
2023-01-20T02:06:19.088Z,17.40
2023-01-20T02:06:29.223Z,18.00
2023-01-20T02:06:38.976Z,18.10
2023-01-20T02:06:48.955Z,18.60
2023-01-20T02:06:58.954Z,19.00
2023-01-20T02:07:08.985Z,18.60
2023-01-20T02:07:19.027Z,18.20
2023-01-20T02:07:29.534Z,18.20
2023-01-20T02:07:38.970Z,19.10
2023-01-20T02:07:49.539Z,19.60
2023-01-20T02:07:58.970Z,18.60
2023-01-20T02:08:08.937Z,17.90
2023-01-20T02:08:18.936Z,17.40
2023-01-20T02:08:29.650Z,17.70
2023-01-20T02:08:38.947Z,18.30
2023-01-20T02:08:48.941Z,18.00